Time;durP1;ratioP1;P1;durP2;ratioP2;P2;SDS_P1;SDS_P2;PMS_P1;PMS_P2;Temp;Humidity;BMP_temperature;BMP_pressure;BME280_temperature;BME280_humidity;BME280_pressure;Samples;Min_cycle;Max_cycle;Signal;HPM_P1;HPM_P2
2021/04/09 00:01:43;;;;;;;21.30;6.73;;;;;;;;;;6213087;22;19997;-76
2021/04/09 00:04:10;;;;;;;16.27;7.77;;;;;;;;;;6213553;22;19997;-75
2021/04/09 00:06:36;;;;;;;20.33;7.50;;;;;;;;;;6211935;22;20099;-76
2021/04/09 00:09:04;;;;;;;12.93;7.20;;;;;;;;;;6213227;22;20008;-76
2021/04/09 00:11:30;;;;;;;13.60;7.27;;;;;;;;;;6213547;22;19997;-76
2021/04/09 00:13:56;;;;;;;13.53;7.73;;;;;;;;;;6211349;23;20078;-76
2021/04/09 00:16:22;;;;;;;17.97;7.37;;;;;;;;;;6211703;23;20005;-76
2021/04/09 00:18:48;;;;;;;16.20;7.07;;;;;;;;;;6187127;22;20062;-77
2021/04/09 00:21:14;;;;;;;16.37;7.73;;;;;;;;;;6213352;22;20449;-76
2021/04/09 00:23:40;;;;;;;15.10;6.90;;;;;;;;;;6190276;22;20009;-76
2021/04/09 00:26:06;;;;;;;20.53;7.23;;;;;;;;;;6187458;22;20020;-75
2021/04/09 00:28:32;;;;;;;16.57;7.33;;;;;;;;;;6212868;22;20326;-76
2021/04/09 00:30:58;;;;;;;18.93;7.50;;;;;;;;;;6211299;23;20434;-76
2021/04/09 00:33:24;;;;;;;19.10;8.30;;;;;;;;;;6186964;22;20013;-76
2021/04/09 00:35:50;;;;;;;17.40;8.57;;;;;;;;;;6187431;22;20360;-76
2021/04/09 00:38:16;;;;;;;21.80;11.00;;;;;;;;;;6187339;22;20070;-76
2021/04/09 00:40:42;;;;;;;17.70;9.43;;;;;;;;;;6187779;23;20456;-77
2021/04/09 00:43:09;;;;;;;16.43;7.80;;;;;;;;;;6213657;23;20299;-76
2021/04/09 00:45:36;;;;;;;14.77;7.33;;;;;;;;;;6211404;23;20034;-76
2021/04/09 00:48:03;;;;;;;13.83;8.87;;;;;;;;;;6211637;22;20016;-75
2021/04/09 00:50:29;;;;;;;13.37;8.33;;;;;;;;;;6212875;22;20024;-76
2021/04/09 00:52:55;;;;;;;19.03;8.17;;;;;;;;;;6211450;22;20020;-76
2021/04/09 00:55:22;;;;;;;17.80;8.43;;;;;;;;;;6213375;22;20095;-76
2021/04/09 00:57:48;;;;;;;15.37;7.93;;;;;;;;;;6215437;22;20376;-77
2021/04/09 01:00:15;;;;;;;14.90;7.10;;;;;;;;;;6214626;22;20009;-76
2021/04/09 01:02:41;;;;;;;15.60;7.90;;;;;;;;;;6187813;22;20047;-76
2021/04/09 01:05:12;;;;;;;18.07;8.27;;;;;;;;;;6212805;22;20001;-76
2021/04/09 01:07:42;;;;;;;15.97;7.73;;;;;;;;;;6212454;22;20056;-77
2021/04/09 01:10:08;;;;;;;15.13;7.47;;;;;;;;;;6212501;22;20019;-76
2021/04/09 01:12:35;;;;;;;13.53;6.67;;;;;;;;;;6214050;22;19996;-76
2021/04/09 01:15:01;;;;;;;12.83;7.60;;;;;;;;;;6189339;22;20012;-76
2021/04/09 01:17:29;;;;;;;17.03;8.03;;;;;;;;;;6214975;23;20007;-76
2021/04/09 01:20:02;;;;;;;13.40;7.60;;;;;;;;;;6219218;22;20015;-77
2021/04/09 01:22:32;;;;;;;13.77;6.67;;;;;;;;;;6215973;22;20012;-76
2021/04/09 01:25:13;;;;;;;13.60;7.07;;;;;;;;;;6215368;22;20096;-76
2021/04/09 01:27:57;;;;;;;15.60;7.33;;;;;;;;;;6214567;22;20040;-77
2021/04/09 01:30:42;;;;;;;20.63;7.97;;;;;;;;;;6214828;22;20008;-76
2021/04/09 01:33:08;;;;;;;12.23;7.10;;;;;;;;;;6214913;22;20461;-76
2021/04/09 01:35:35;;;;;;;12.70;6.90;;;;;;;;;;6214444;22;20001;-76
2021/04/09 01:38:02;;;;;;;16.00;6.83;;;;;;;;;;6187220;22;20024;-76
2021/04/09 01:40:33;;;;;;;16.83;7.20;;;;;;;;;;6212467;22;20005;-76
2021/04/09 01:43:01;;;;;;;20.87;9.03;;;;;;;;;;6213276;22;20005;-77
2021/04/09 01:45:27;;;;;;;17.17;6.80;;;;;;;;;;6214621;23;20003;-76
2021/04/09 01:47:54;;;;;;;16.27;7.70;;;;;;;;;;6187414;22;20103;-76
2021/04/09 01:50:20;;;;;;;21.17;7.30;;;;;;;;;;6188067;22;20066;-77
2021/04/09 01:52:48;;;;;;;14.27;6.93;;;;;;;;;;6212756;22;20312;-76
2021/04/09 01:55:14;;;;;;;13.00;5.47;;;;;;;;;;6212820;22;20013;-76
2021/04/09 01:57:41;;;;;;;12.97;6.57;;;;;;;;;;6211839;22;20016;-77
2021/04/09 02:00:10;;;;;;;14.27;6.57;;;;;;;;;;6212539;22;20013;-77
2021/04/09 02:02:37;;;;;;;15.17;5.97;;;;;;;;;;6212666;22;20495;-76
2021/04/09 02:05:04;;;;;;;17.77;7.67;;;;;;;;;;6212318;23;20326;-76
2021/04/09 02:07:31;;;;;;;13.70;6.30;;;;;;;;;;6212402;22;20056;-77
2021/04/09 02:09:58;;;;;;;11.80;6.30;;;;;;;;;;6213214;22;20315;-76
2021/04/09 02:12:25;;;;;;;20.33;6.53;;;;;;;;;;6215149;23;19997;-77
2021/04/09 02:14:56;;;;;;;11.80;6.73;;;;;;;;;;6188089;22;20460;-76
2021/04/09 02:17:22;;;;;;;17.60;7.07;;;;;;;;;;6213190;22;20036;-77
2021/04/09 02:19:48;;;;;;;14.93;7.60;;;;;;;;;;6188475;22;20013;-78
2021/04/09 02:22:14;;;;;;;17.73;7.10;;;;;;;;;;6188813;22;20095;-76
2021/04/09 02:24:40;;;;;;;19.57;7.50;;;;;;;;;;6214170;22;20009;-76
2021/04/09 02:27:06;;;;;;;21.07;7.83;;;;;;;;;;6215192;23;20433;-76
2021/04/09 02:29:33;;;;;;;18.20;7.33;;;;;;;;;;6190016;22;20012;-76
2021/04/09 02:32:00;;;;;;;19.03;6.97;;;;;;;;;;6215693;22;20009;-76
2021/04/09 02:34:26;;;;;;;15.83;6.23;;;;;;;;;;6218760;22;20003;-77
2021/04/09 02:36:52;;;;;;;17.30;6.60;;;;;;;;;;6194766;22;20009;-76
2021/04/09 02:39:23;;;;;;;16.00;6.73;;;;;;;;;;6221486;22;20017;-77
2021/04/09 02:41:57;;;;;;;24.43;6.63;;;;;;;;;;6222584;22;20024;-77
2021/04/09 02:44:23;;;;;;;14.57;6.93;;;;;;;;;;6219996;22;20001;-77
2021/04/09 02:46:55;;;;;;;16.43;7.10;;;;;;;;;;6218814;23;20013;-76
2021/04/09 02:49:30;;;;;;;17.53;6.90;;;;;;;;;;6218543;22;20100;-77
2021/04/09 02:51:57;;;;;;;16.23;5.90;;;;;;;;;;6220053;22;20013;-77
2021/04/09 02:54:24;;;;;;;16.70;6.27;;;;;;;;;;6220517;22;20095;-77
2021/04/09 02:56:51;;;;;;;18.83;6.33;;;;;;;;;;6220909;22;20001;-77
2021/04/09 02:59:17;;;;;;;17.27;5.90;;;;;;;;;;6221036;22;20019;-77
2021/04/09 03:01:44;;;;;;;22.07;6.50;;;;;;;;;;6219254;22;20081;-78
2021/04/09 03:04:11;;;;;;;21.10;6.50;;;;;;;;;;6219377;23;20001;-76
2021/04/09 03:06:37;;;;;;;15.50;5.23;;;;;;;;;;6215041;23;20017;-77
2021/04/09 03:09:06;;;;;;;15.33;5.40;;;;;;;;;;6191383;22;20021;-76
2021/04/09 03:11:36;;;;;;;17.57;5.30;;;;;;;;;;6215179;23;20012;-77
2021/04/09 03:14:03;;;;;;;21.97;6.37;;;;;;;;;;6213659;22;20300;-76
2021/04/09 03:16:30;;;;;;;21.80;6.60;;;;;;;;;;6217446;22;19996;-76
2021/04/09 03:18:56;;;;;;;15.83;4.40;;;;;;;;;;6216362;22;20008;-77
2021/04/09 03:21:22;;;;;;;26.30;5.40;;;;;;;;;;6214467;22;20012;-77
2021/04/09 03:23:48;;;;;;;13.47;5.10;;;;;;;;;;6213814;22;20011;-76
2021/04/09 03:26:14;;;;;;;19.43;5.10;;;;;;;;;;6214099;22;20299;-77
2021/04/09 03:28:40;;;;;;;21.87;6.03;;;;;;;;;;6212760;22;20024;-77
2021/04/09 03:31:06;;;;;;;19.87;6.23;;;;;;;;;;6213365;22;20020;-77
2021/04/09 03:33:32;;;;;;;13.53;4.93;;;;;;;;;;6188070;23;20036;-77
2021/04/09 03:35:58;;;;;;;21.80;4.97;;;;;;;;;;6214450;22;20009;-76
2021/04/09 03:38:24;;;;;;;20.57;4.83;;;;;;;;;;6215532;22;20070;-76
2021/04/09 03:40:50;;;;;;;23.57;5.23;;;;;;;;;;6189234;22;20013;-76
2021/04/09 03:43:17;;;;;;;19.13;5.07;;;;;;;;;;6213783;22;20431;-77
2021/04/09 03:45:43;;;;;;;18.93;5.07;;;;;;;;;;6217084;23;20001;-75
2021/04/09 03:48:09;;;;;;;14.67;4.90;;;;;;;;;;6214809;22;20375;-78
2021/04/09 03:50:36;;;;;;;18.00;5.27;;;;;;;;;;6214335;23;20004;-76
2021/04/09 03:53:03;;;;;;;20.47;5.80;;;;;;;;;;6215049;22;20065;-76
2021/04/09 03:55:29;;;;;;;19.10;5.00;;;;;;;;;;6213095;22;20016;-76
2021/04/09 03:57:55;;;;;;;26.30;6.20;;;;;;;;;;6214374;22;20009;-76
2021/04/09 04:00:21;;;;;;;18.60;5.27;;;;;;;;;;6187784;22;20015;-76
2021/04/09 04:02:48;;;;;;;16.40;4.83;;;;;;;;;;6187719;22;20016;-76
2021/04/09 04:05:15;;;;;;;18.17;5.73;;;;;;;;;;6187871;23;20016;-76
2021/04/09 04:07:41;;;;;;;17.93;5.50;;;;;;;;;;6212038;23;20037;-76
2021/04/09 04:10:07;;;;;;;14.80;4.33;;;;;;;;;;6212481;22;20334;-76
2021/04/09 04:12:33;;;;;;;18.93;5.33;;;;;;;;;;6212961;22;20013;-76
2021/04/09 04:14:59;;;;;;;19.97;5.13;;;;;;;;;;6212772;22;20016;-76
2021/04/09 04:17:25;;;;;;;22.00;4.73;;;;;;;;;;6211948;22;20008;-77
2021/04/09 04:19:51;;;;;;;21.47;5.30;;;;;;;;;;6188045;22;20009;-77
2021/04/09 04:22:17;;;;;;;20.17;5.00;;;;;;;;;;6187272;22;20047;-76
2021/04/09 04:24:43;;;;;;;23.67;6.87;;;;;;;;;;6215167;22;20001;-76
2021/04/09 04:27:09;;;;;;;18.93;4.80;;;;;;;;;;6215702;22;19997;-76
2021/04/09 04:29:35;;;;;;;20.90;4.77;;;;;;;;;;6214042;23;20004;-76
2021/04/09 04:32:01;;;;;;;24.27;4.90;;;;;;;;;;6189783;22;20015;-76
2021/04/09 04:34:27;;;;;;;20.50;5.23;;;;;;;;;;6188912;22;20008;-77
2021/04/09 04:36:53;;;;;;;15.87;4.83;;;;;;;;;;6212676;23;20011;-76
2021/04/09 04:39:19;;;;;;;18.33;4.60;;;;;;;;;;6188575;22;20021;-77
2021/04/09 04:41:46;;;;;;;24.37;5.80;;;;;;;;;;6213011;22;20009;-76
2021/04/09 04:44:12;;;;;;;24.87;5.20;;;;;;;;;;6214955;23;20008;-77
2021/04/09 04:46:39;;;;;;;21.00;5.43;;;;;;;;;;6189063;22;20017;-76
2021/04/09 04:49:05;;;;;;;16.93;5.37;;;;;;;;;;6214372;22;20019;-77
2021/04/09 04:51:31;;;;;;;15.33;4.87;;;;;;;;;;6215152;22;20331;-76
2021/04/09 04:53:57;;;;;;;20.67;6.00;;;;;;;;;;6216103;22;20417;-77
2021/04/09 04:56:23;;;;;;;21.33;4.53;;;;;;;;;;6217513;23;20036;-76
2021/04/09 04:58:49;;;;;;;16.63;6.00;;;;;;;;;;6193280;22;20407;-76
2021/04/09 05:01:15;;;;;;;27.13;8.03;;;;;;;;;;6220339;22;20079;-77
2021/04/09 05:03:42;;;;;;;19.33;6.03;;;;;;;;;;6222383;22;20001;-77
2021/04/09 05:06:08;;;;;;;16.23;4.13;;;;;;;;;;6220240;22;20017;-77
2021/04/09 05:08:34;;;;;;;16.80;5.33;;;;;;;;;;6214293;23;20016;-77
2021/04/09 05:11:00;;;;;;;24.30;6.63;;;;;;;;;;6214876;22;20330;-77
2021/04/09 05:13:26;;;;;;;20.63;5.57;;;;;;;;;;6189440;22;20020;-77
2021/04/09 05:15:52;;;;;;;19.87;6.03;;;;;;;;;;6214203;23;20001;-76
2021/04/09 05:18:18;;;;;;;19.93;6.23;;;;;;;;;;6214391;22;20017;-77
2021/04/09 05:20:44;;;;;;;23.53;6.87;;;;;;;;;;6216292;22;20001;-76
2021/04/09 05:23:11;;;;;;;23.73;4.77;;;;;;;;;;6216378;23;20330;-77
2021/04/09 05:25:37;;;;;;;24.17;5.90;;;;;;;;;;6218352;23;20005;-76
2021/04/09 05:28:03;;;;;;;16.30;5.00;;;;;;;;;;6220341;22;20292;-77
2021/04/09 05:30:29;;;;;;;25.47;5.40;;;;;;;;;;6193316;22;20016;-76
2021/04/09 05:32:55;;;;;;;20.07;5.07;;;;;;;;;;6217488;22;20005;-76
2021/04/09 05:35:23;;;;;;;19.80;5.03;;;;;;;;;;6216085;22;20016;-76
2021/04/09 05:37:49;;;;;;;22.80;5.40;;;;;;;;;;6215005;22;20047;-76
2021/04/09 05:40:15;;;;;;;19.57;4.80;;;;;;;;;;6211851;22;20015;-76
2021/04/09 05:42:41;;;;;;;19.27;4.80;;;;;;;;;;6186367;22;20083;-77
2021/04/09 05:45:07;;;;;;;19.53;4.27;;;;;;;;;;6187252;22;20008;-77
2021/04/09 05:47:34;;;;;;;17.17;4.73;;;;;;;;;;6186781;22;20330;-76
2021/04/09 05:50:00;;;;;;;22.37;5.13;;;;;;;;;;6211245;22;20326;-75
2021/04/09 05:52:26;;;;;;;20.97;4.80;;;;;;;;;;6187111;22;20009;-76
2021/04/09 05:54:51;;;;;;;29.17;5.57;;;;;;;;;;6211738;23;20005;-76
2021/04/09 05:57:17;;;;;;;22.97;4.80;;;;;;;;;;6187050;22;20434;-76
2021/04/09 05:59:45;;;;;;;23.43;4.93;;;;;;;;;;6216860;22;20043;-77
2021/04/09 06:02:11;;;;;;;19.60;5.70;;;;;;;;;;6193236;22;20009;-77
2021/04/09 06:04:37;;;;;;;25.43;4.63;;;;;;;;;;6192532;22;20016;-77
2021/04/09 06:07:03;;;;;;;23.10;5.53;;;;;;;;;;6215534;23;20438;-76
2021/04/09 06:09:29;;;;;;;30.23;4.57;;;;;;;;;;6191548;22;20017;-77
2021/04/09 06:11:56;;;;;;;19.07;4.07;;;;;;;;;;6217080;23;20073;-77
2021/04/09 06:14:22;;;;;;;17.30;4.80;;;;;;;;;;6215388;22;20137;-76
2021/04/09 06:16:48;;;;;;;15.67;3.73;;;;;;;;;;6217042;22;20322;-77
2021/04/09 06:19:14;;;;;;;19.80;4.80;;;;;;;;;;6216904;22;20521;-76
2021/04/09 06:21:40;;;;;;;23.93;4.57;;;;;;;;;;6189985;22;20012;-77
2021/04/09 06:24:07;;;;;;;16.67;4.17;;;;;;;;;;6215008;22;20410;-76
2021/04/09 06:26:33;;;;;;;20.90;5.23;;;;;;;;;;6213182;22;20087;-76
2021/04/09 06:28:59;;;;;;;25.83;4.50;;;;;;;;;;6214152;22;20005;-76
2021/04/09 06:31:25;;;;;;;21.10;4.40;;;;;;;;;;6188930;23;20052;-76
2021/04/09 06:33:51;;;;;;;19.60;5.27;;;;;;;;;;6214905;23;20037;-75
2021/04/09 06:36:17;;;;;;;20.50;3.73;;;;;;;;;;6188824;23;20019;-76
2021/04/09 06:38:43;;;;;;;23.87;4.87;;;;;;;;;;6215632;22;20033;-77
2021/04/09 06:41:10;;;;;;;15.93;3.57;;;;;;;;;;6191583;22;20008;-77
2021/04/09 06:43:37;;;;;;;18.70;3.93;;;;;;;;;;6217319;23;20013;-76
2021/04/09 06:46:04;;;;;;;16.77;3.40;;;;;;;;;;6219554;22;20414;-75
2021/04/09 06:48:30;;;;;;;23.13;4.00;;;;;;;;;;6193321;22;20023;-76
2021/04/09 06:50:56;;;;;;;25.10;3.73;;;;;;;;;;6193517;22;20008;-77
2021/04/09 06:53:23;;;;;;;15.97;2.93;;;;;;;;;;6217841;22;20012;-76
2021/04/09 06:55:50;;;;;;;22.10;2.77;;;;;;;;;;6221072;23;20005;-77
2021/04/09 06:58:18;;;;;;;14.80;3.17;;;;;;;;;;6195219;22;20058;-76
2021/04/09 07:00:46;;;;;;;22.10;3.70;;;;;;;;;;6220231;22;20012;-76
2021/04/09 07:03:13;;;;;;;20.50;4.53;;;;;;;;;;6214608;22;20054;-76
2021/04/09 07:05:39;;;;;;;23.20;4.63;;;;;;;;;;6213222;22;20057;-77
2021/04/09 07:08:05;;;;;;;20.50;4.07;;;;;;;;;;6212953;22;20009;-77
2021/04/09 07:10:32;;;;;;;19.37;3.57;;;;;;;;;;6212869;23;20031;-77
2021/04/09 07:13:04;;;;;;;23.23;3.97;;;;;;;;;;6188057;23;20389;-77
2021/04/09 07:15:36;;;;;;;16.93;3.17;;;;;;;;;;6213332;22;20009;-77
2021/04/09 07:18:03;;;;;;;19.67;3.00;;;;;;;;;;6214550;22;20065;-77
2021/04/09 07:20:32;;;;;;;16.67;3.90;;;;;;;;;;6191110;22;20073;-77
2021/04/09 07:23:00;;;;;;;19.17;3.30;;;;;;;;;;6217983;22;20013;-77
2021/04/09 07:25:37;;;;;;;23.20;3.80;;;;;;;;;;6213939;22;20080;-77
2021/04/09 07:28:10;;;;;;;25.43;4.37;;;;;;;;;;6214254;22;20000;-77
2021/04/09 07:30:36;;;;;;;19.13;3.30;;;;;;;;;;6212342;22;20426;-78
2021/04/09 07:33:03;;;;;;;15.90;3.40;;;;;;;;;;6212853;22;20061;-77
2021/04/09 07:35:30;;;;;;;18.67;3.57;;;;;;;;;;6212550;22;20057;-77
2021/04/09 07:37:56;;;;;;;16.20;3.67;;;;;;;;;;6187263;22;20017;-76
2021/04/09 07:40:26;;;;;;;19.33;3.40;;;;;;;;;;6212242;22;20009;-77
2021/04/09 07:42:52;;;;;;;21.90;3.77;;;;;;;;;;6212273;22;20453;-77
2021/04/09 07:45:20;;;;;;;20.97;2.87;;;;;;;;;;6212145;22;20321;-76
2021/04/09 07:47:56;;;;;;;16.60;2.97;;;;;;;;;;6211548;22;20004;-77
2021/04/09 07:50:35;;;;;;;15.00;3.90;;;;;;;;;;6214375;22;20008;-76
2021/04/09 07:53:01;;;;;;;18.40;2.57;;;;;;;;;;6215481;22;20316;-77
2021/04/09 07:55:29;;;;;;;14.60;2.90;;;;;;;;;;6189411;22;20012;-77
2021/04/09 07:57:56;;;;;;;18.27;4.17;;;;;;;;;;6221046;23;20015;-78
2021/04/09 08:00:31;;;;;;;14.93;3.33;;;;;;;;;;6214890;22;20009;-76
2021/04/09 08:02:57;;;;;;;19.43;3.73;;;;;;;;;;6189523;22;20020;-75
2021/04/09 08:05:24;;;;;;;15.57;2.90;;;;;;;;;;6215630;22;20039;-78
2021/04/09 08:07:51;;;;;;;15.60;4.07;;;;;;;;;;6212733;22;20082;-76
2021/04/09 08:10:17;;;;;;;18.93;3.40;;;;;;;;;;6214691;23;20001;-78
2021/04/09 08:12:44;;;;;;;11.83;3.23;;;;;;;;;;6215170;22;20001;-77
2021/04/09 08:15:27;;;;;;;11.57;2.60;;;;;;;;;;6190125;22;20076;-76
2021/04/09 08:17:57;;;;;;;11.90;3.10;;;;;;;;;;6214299;22;20020;-77
2021/04/09 08:20:23;;;;;;;19.47;3.33;;;;;;;;;;6216442;22;20022;-77
2021/04/09 08:22:50;;;;;;;16.10;3.23;;;;;;;;;;6216160;22;20009;-77
2021/04/09 08:25:16;;;;;;;18.80;3.60;;;;;;;;;;6190876;22;20042;-77
2021/04/09 08:27:44;;;;;;;12.67;2.40;;;;;;;;;;6220075;22;20005;-78
2021/04/09 08:30:10;;;;;;;15.97;3.03;;;;;;;;;;6220551;22;20001;-77
2021/04/09 08:32:36;;;;;;;18.53;3.93;;;;;;;;;;6222791;22;20068;-78
2021/04/09 08:35:05;;;;;;;16.50;3.37;;;;;;;;;;6222944;23;19996;-77
2021/04/09 08:37:31;;;;;;;12.97;2.73;;;;;;;;;;6220248;22;19997;-78
2021/04/09 08:39:57;;;;;;;14.57;3.40;;;;;;;;;;6194907;22;20080;-77
2021/04/09 08:42:23;;;;;;;23.67;3.63;;;;;;;;;;6222477;23;20115;-78
2021/04/09 08:44:50;;;;;;;15.10;3.20;;;;;;;;;;6224489;23;19997;-76
2021/04/09 08:47:17;;;;;;;15.40;3.13;;;;;;;;;;6223890;22;20326;-79
2021/04/09 08:49:43;;;;;;;14.83;3.30;;;;;;;;;;6223539;22;20032;-78
2021/04/09 08:52:10;;;;;;;15.57;2.90;;;;;;;;;;6223365;22;20004;-78
2021/04/09 08:54:48;;;;;;;10.60;2.63;;;;;;;;;;6197169;22;20009;-78
2021/04/09 08:57:26;;;;;;;16.70;2.97;;;;;;;;;;6222701;22;20093;-78
2021/04/09 09:00:02;;;;;;;18.23;4.27;;;;;;;;;;6221180;22;20017;-77
2021/04/09 09:02:28;;;;;;;16.87;3.60;;;;;;;;;;6216856;22;20012;-79
2021/04/09 09:04:57;;;;;;;19.20;3.10;;;;;;;;;;6214558;22;20024;-78
2021/04/09 09:07:41;;;;;;;14.20;3.10;;;;;;;;;;6213173;22;20089;-78
2021/04/09 09:10:20;;;;;;;17.98;4.47;;;;;;;;;;6214251;22;20000;-79
2021/04/09 09:13:17;;;;;;;16.03;2.90;;;;;;;;;;6215848;22;20039;-78
2021/04/09 09:15:46;;;;;;;15.70;2.87;;;;;;;;;;6213767;22;20011;-78
2021/04/09 09:18:33;;;;;;;20.93;3.43;;;;;;;;;;6213657;22;20020;-78
2021/04/09 09:21:11;;;;;;;20.60;3.23;;;;;;;;;;6215568;22;19997;-78
2021/04/09 09:24:01;;;;;;;14.27;3.10;;;;;;;;;;6216293;22;20087;-79
2021/04/09 09:26:32;;;;;;;15.93;3.37;;;;;;;;;;6208828;23;20137;-77
2021/04/09 09:29:13;;;;;;;16.20;3.27;;;;;;;;;;6220031;22;20005;-78
2021/04/09 09:31:41;;;;;;;16.00;3.10;;;;;;;;;;6223391;23;20008;-78
2021/04/09 09:34:19;;;;;;;13.37;3.47;;;;;;;;;;6220552;22;20065;-80
2021/04/09 09:37:02;;;;;;;15.80;3.03;;;;;;;;;;6217757;22;20455;-79
2021/04/09 09:39:51;;;;;;;18.45;3.20;;;;;;;;;;6194705;22;20021;-79
2021/04/09 09:42:26;;;;;;;15.07;3.03;;;;;;;;;;6205713;23;20012;-79
2021/04/09 09:44:53;;;;;;;18.50;3.63;;;;;;;;;;6223881;22;20008;-78
2021/04/09 09:47:20;;;;;;;8.40;3.40;;;;;;;;;;6223684;23;20000;-78
2021/04/09 09:50:05;;;;;;;14.80;3.10;;;;;;;;;;6220506;22;20009;-77
2021/04/09 09:52:40;;;;;;;14.00;3.47;;;;;;;;;;6225550;23;20000;-79
2021/04/09 09:55:11;;;;;;;16.13;3.60;;;;;;;;;;6223554;22;20085;-79
2021/04/09 09:57:44;;;;;;;13.85;3.25;;;;;;;;;;6218311;23;20008;-80
2021/04/09 10:00:11;;;;;;;17.23;3.35;;;;;;;;;;6217103;22;20465;-79
2021/04/09 10:02:37;;;;;;;14.43;3.25;;;;;;;;;;6215305;22;20013;-80
2021/04/09 10:05:03;;;;;;;11.63;3.55;;;;;;;;;;6189981;22;20013;-79
2021/04/09 10:07:29;;;;;;;14.68;3.33;;;;;;;;;;6189538;22;20020;-79
2021/04/09 10:09:55;;;;;;;12.95;2.67;;;;;;;;;;6190355;22;20012;-78
2021/04/09 10:12:25;;;;;;;22.45;4.38;;;;;;;;;;6191445;22;20036;-80
2021/04/09 10:14:52;;;;;;;17.25;5.00;;;;;;;;;;6214005;22;20377;-78
2021/04/09 10:17:18;;;;;;;14.85;3.40;;;;;;;;;;6214922;22;20011;-79
2021/04/09 10:20:17;;;;;;;14.93;3.55;;;;;;;;;;6195538;22;20013;-79
2021/04/09 10:22:43;;;;;;;21.20;3.75;;;;;;;;;;6169978;23;20016;-77
2021/04/09 10:25:09;;;;;;;10.80;3.67;;;;;;;;;;6214636;22;20009;-79
2021/04/09 10:27:42;;;;;;;15.63;3.33;;;;;;;;;;6212943;22;20027;-79
2021/04/09 10:30:09;;;;;;;12.98;2.72;;;;;;;;;;6213147;22;20028;-78
2021/04/09 10:32:35;;;;;;;16.33;3.03;;;;;;;;;;6214505;23;20020;-79
2021/04/09 10:35:01;;;;;;;16.13;3.30;;;;;;;;;;6191017;22;20330;-79
2021/04/09 10:37:28;;;;;;;19.95;3.47;;;;;;;;;;6219336;22;20001;-79
2021/04/09 10:39:55;;;;;;;16.85;4.05;;;;;;;;;;6214909;22;20020;-78
2021/04/09 10:42:21;;;;;;;16.10;3.72;;;;;;;;;;6217115;23;20013;-80
2021/04/09 10:44:47;;;;;;;15.25;4.18;;;;;;;;;;6219275;23;20071;-79
2021/04/09 10:47:13;;;;;;;10.95;3.17;;;;;;;;;;6216136;23;20076;-79
2021/04/09 10:49:43;;;;;;;13.30;3.38;;;;;;;;;;6191799;22;20038;-79
2021/04/09 10:52:13;;;;;;;17.25;3.75;;;;;;;;;;6193399;22;20069;-79
2021/04/09 10:54:40;;;;;;;14.43;3.28;;;;;;;;;;6229557;22;20001;-79
2021/04/09 10:57:08;;;;;;;18.00;3.67;;;;;;;;;;6231052;22;20035;-79
2021/04/09 10:59:36;;;;;;;18.63;3.63;;;;;;;;;;6216808;22;20036;-80
2021/04/09 11:02:03;;;;;;;13.27;3.47;;;;;;;;;;6215980;22;20043;-80
2021/04/09 11:04:29;;;;;;;11.43;2.75;;;;;;;;;;6216799;23;20009;-80
2021/04/09 11:07:00;;;;;;;12.40;3.38;;;;;;;;;;6193246;22;20303;-80
2021/04/09 11:09:47;;;;;;;11.23;3.55;;;;;;;;;;6217003;23;20311;-80
2021/04/09 11:12:16;;;;;;;13.05;3.20;;;;;;;;;;6217718;22;20001;-80
2021/04/09 11:14:42;;;;;;;18.77;2.75;;;;;;;;;;6218574;22;20441;-80
2021/04/09 11:17:09;;;;;;;13.18;3.55;;;;;;;;;;6216665;22;20060;-80
2021/04/09 11:19:36;;;;;;;15.82;3.50;;;;;;;;;;6192325;23;20023;-80
2021/04/09 11:22:07;;;;;;;15.00;3.20;;;;;;;;;;6216334;22;20009;-80
2021/04/09 11:24:35;;;;;;;19.38;4.25;;;;;;;;;;6218416;22;20406;-79
2021/04/09 11:27:02;;;;;;;11.23;3.47;;;;;;;;;;6218750;22;20009;-79
2021/04/09 11:29:29;;;;;;;11.60;3.55;;;;;;;;;;6219723;22;20015;-79
2021/04/09 11:32:11;;;;;;;15.25;2.90;;;;;;;;;;6222222;22;20005;-79
2021/04/09 11:34:38;;;;;;;11.77;3.35;;;;;;;;;;6195196;22;20105;-80
2021/04/09 11:37:05;;;;;;;12.82;4.03;;;;;;;;;;6220238;22;20004;-79
2021/04/09 11:39:31;;;;;;;11.18;2.55;;;;;;;;;;6223890;22;20009;-80
2021/04/09 11:41:57;;;;;;;11.05;3.45;;;;;;;;;;6220646;23;20053;-80
2021/04/09 11:44:29;;;;;;;11.77;3.45;;;;;;;;;;6220462;22;20025;-81
2021/04/09 11:50:04;;;;;;;15.13;4.18;;;;;;;;;;6208706;23;19997;-80
2021/04/09 11:52:50;;;;;;;12.07;3.08;;;;;;;;;;6182364;23;20013;-80
2021/04/09 11:55:17;;;;;;;14.45;2.78;;;;;;;;;;6207051;23;20001;-80
2021/04/09 11:57:43;;;;;;;16.48;3.05;;;;;;;;;;6180549;23;19993;-79
2021/04/09 12:00:30;;;;;;;12.93;3.45;;;;;;;;;;6199821;23;20035;-80
2021/04/09 12:02:58;;;;;;;10.48;2.92;;;;;;;;;;6173451;23;20021;-80
2021/04/09 12:05:25;;;;;;;15.15;4.43;;;;;;;;;;6178577;23;20001;-80
2021/04/09 12:07:51;;;;;;;16.23;3.78;;;;;;;;;;6207762;23;20012;-81
2021/04/09 12:10:17;;;;;;;18.15;5.45;;;;;;;;;;6174269;23;20005;-81
2021/04/09 12:12:44;;;;;;;15.07;3.00;;;;;;;;;;6173362;23;20013;-80
2021/04/09 12:15:11;;;;;;;12.65;3.47;;;;;;;;;;6177211;23;20073;-81
2021/04/09 12:17:39;;;;;;;11.00;3.15;;;;;;;;;;6209853;23;20005;-83
2021/04/09 12:20:07;;;;;;;17.25;3.78;;;;;;;;;;6183066;22;20028;-80
2021/04/09 12:22:34;;;;;;;11.63;2.90;;;;;;;;;;6243379;22;19992;-82
2021/04/09 12:25:06;;;;;;;18.50;3.50;;;;;;;;;;6245284;22;20062;-83
2021/04/09 12:27:32;;;;;;;14.32;3.90;;;;;;;;;;6244277;22;19999;-82
2021/04/09 12:30:19;;;;;;;15.48;3.25;;;;;;;;;;6244121;23;20008;-83
2021/04/09 12:32:45;;;;;;;16.92;4.05;;;;;;;;;;6240498;23;20008;-79
2021/04/09 12:35:12;;;;;;;14.77;3.42;;;;;;;;;;6238857;23;20071;-80
2021/04/09 12:37:38;;;;;;;14.73;3.38;;;;;;;;;;6238425;23;20014;-81
2021/04/09 12:40:08;;;;;;;12.73;3.35;;;;;;;;;;6241515;23;20004;-81
2021/04/09 12:42:34;;;;;;;16.67;3.78;;;;;;;;;;6270419;22;20009;-80
2021/04/09 12:47:36;;;;;;;14.50;3.58;;;;;;;;;;6238703;22;20050;-81
2021/04/09 12:50:02;;;;;;;14.90;3.30;;;;;;;;;;6243306;23;19996;-82
2021/04/09 12:52:28;;;;;;;11.48;3.28;;;;;;;;;;6238406;23;20033;-81
2021/04/09 12:54:55;;;;;;;9.30;3.28;;;;;;;;;;6240750;23;20029;-80
2021/04/09 12:57:24;;;;;;;14.65;3.85;;;;;;;;;;6239887;23;20008;-81
2021/04/09 12:59:50;;;;;;;12.02;3.42;;;;;;;;;;6241254;22;20004;-82
2021/04/09 13:02:16;;;;;;;10.45;3.60;;;;;;;;;;6240749;23;20011;-82
2021/04/09 13:04:42;;;;;;;16.92;3.97;;;;;;;;;;6240201;23;20015;-81
2021/04/09 13:07:08;;;;;;;16.88;4.20;;;;;;;;;;6264411;22;19995;-81
2021/04/09 13:09:35;;;;;;;10.93;3.15;;;;;;;;;;6243922;23;20016;-81
2021/04/09 13:12:01;;;;;;;16.15;3.55;;;;;;;;;;6236562;23;20072;-80
2021/04/09 13:14:29;;;;;;;12.80;3.80;;;;;;;;;;6238566;23;20015;-83
2021/04/09 13:16:56;;;;;;;16.90;3.72;;;;;;;;;;6180976;23;20065;-80
2021/04/09 13:19:23;;;;;;;10.25;3.30;;;;;;;;;;6154530;22;20033;-79
2021/04/09 13:21:49;;;;;;;16.17;4.53;;;;;;;;;;6198125;23;20020;-80
2021/04/09 13:24:18;;;;;;;12.52;3.30;;;;;;;;;;6203728;23;20005;-81
2021/04/09 13:26:45;;;;;;;15.55;3.30;;;;;;;;;;6202233;23;20059;-81
2021/04/09 13:29:11;;;;;;;14.57;3.38;;;;;;;;;;6205020;23;20017;-81
2021/04/09 13:31:37;;;;;;;13.32;3.78;;;;;;;;;;6200501;23;20043;-80
2021/04/09 13:34:03;;;;;;;10.20;3.25;;;;;;;;;;6200931;23;20311;-81
2021/04/09 13:36:29;;;;;;;19.60;3.83;;;;;;;;;;6199564;22;20008;-79
2021/04/09 13:38:56;;;;;;;13.25;3.38;;;;;;;;;;6200602;23;20043;-81
2021/04/09 13:41:22;;;;;;;10.70;3.40;;;;;;;;;;6199554;23;20063;-81
2021/04/09 13:43:52;;;;;;;14.38;3.28;;;;;;;;;;6199286;23;19997;-81
2021/04/09 13:46:20;;;;;;;9.35;3.55;;;;;;;;;;6201786;22;20048;-80
2021/04/09 13:48:46;;;;;;;16.25;4.10;;;;;;;;;;6194901;23;20017;-80
2021/04/09 13:51:13;;;;;;;15.32;3.95;;;;;;;;;;6191424;23;20005;-80
2021/04/09 13:53:40;;;;;;;14.68;3.83;;;;;;;;;;6189705;23;20340;-80
2021/04/09 13:56:07;;;;;;;11.85;3.30;;;;;;;;;;6191341;23;20001;-80
2021/04/09 13:58:33;;;;;;;13.20;3.30;;;;;;;;;;6202562;23;20380;-81
2021/04/09 14:01:00;;;;;;;12.30;3.30;;;;;;;;;;6198596;23;20016;-83
2021/04/09 14:03:26;;;;;;;12.43;3.55;;;;;;;;;;6198262;23;20009;-81
2021/04/09 14:05:52;;;;;;;15.52;3.80;;;;;;;;;;6198039;23;20042;-80
2021/04/09 14:08:18;;;;;;;12.85;2.92;;;;;;;;;;6201553;23;20012;-81
2021/04/09 14:10:44;;;;;;;13.65;3.75;;;;;;;;;;6202012;23;20009;-81
2021/04/09 14:13:10;;;;;;;18.52;4.25;;;;;;;;;;6201405;23;20001;-80
2021/04/09 14:15:40;;;;;;;14.23;3.28;;;;;;;;;;6205112;23;20004;-81
2021/04/09 14:18:06;;;;;;;10.43;4.18;;;;;;;;;;6205561;23;20049;-80
2021/04/09 14:20:33;;;;;;;13.38;4.15;;;;;;;;;;6207965;23;20021;-80
2021/04/09 14:22:59;;;;;;;10.73;3.20;;;;;;;;;;6199550;23;20041;-81
2021/04/09 14:25:25;;;;;;;13.35;3.83;;;;;;;;;;6206168;23;20009;-80
2021/04/09 14:27:51;;;;;;;25.95;3.78;;;;;;;;;;6208392;23;20005;-80
2021/04/09 14:30:19;;;;;;;9.93;2.90;;;;;;;;;;6198308;23;20031;-79
2021/04/09 14:32:46;;;;;;;13.88;4.70;;;;;;;;;;6194051;23;20004;-79
2021/04/09 14:35:13;;;;;;;12.25;3.58;;;;;;;;;;6196039;23;20009;-80
2021/04/09 14:37:40;;;;;;;19.02;4.03;;;;;;;;;;6200060;23;20028;-80
2021/04/09 14:40:07;;;;;;;9.57;3.92;;;;;;;;;;6172499;23;20043;-80
2021/04/09 14:42:36;;;;;;;11.90;3.60;;;;;;;;;;6197102;23;20006;-79